createdAt,value
2024-01-12T00:02:24.503Z,78.83
2024-01-12T00:04:52.302Z,78.92
2024-01-12T00:07:18.932Z,79.17
2024-01-12T00:09:45.406Z,78.70
2024-01-12T00:12:11.924Z,78.94
2024-01-12T00:14:38.424Z,78.17
2024-01-12T00:17:04.904Z,78.73
2024-01-12T00:19:31.306Z,77.97
2024-01-12T00:21:57.813Z,78.47
2024-01-12T00:24:24.767Z,78.45
2024-01-12T00:26:51.424Z,78.65
2024-01-12T00:29:18.066Z,78.87
2024-01-12T00:31:44.920Z,78.92
2024-01-12T00:34:11.484Z,78.44
2024-01-12T00:36:38.007Z,78.78
2024-01-12T00:39:05.219Z,79.11
2024-01-12T00:41:31.855Z,78.15
2024-01-12T00:43:58.902Z,78.39
2024-01-12T00:46:25.352Z,77.97
2024-01-12T00:48:51.987Z,77.94
2024-01-12T00:51:18.972Z,77.59
2024-01-12T00:53:45.647Z,77.53
2024-01-12T00:56:12.266Z,77.90
2024-01-12T00:58:38.738Z,78.29
2024-01-12T01:01:05.356Z,77.94
2024-01-12T01:03:32.231Z,77.36
2024-01-12T01:05:58.841Z,77.65
2024-01-12T01:08:25.561Z,77.40
2024-01-12T01:10:52.084Z,77.04
2024-01-12T01:13:18.621Z,76.75
2024-01-12T01:15:45.088Z,76.79
2024-01-12T01:18:12.338Z,76.85
2024-01-12T01:20:39.396Z,76.66
2024-01-12T01:23:06.210Z,76.38
2024-01-12T01:25:32.692Z,76.49
2024-01-12T01:27:59.201Z,76.71
2024-01-12T01:30:25.689Z,77.09
2024-01-12T01:32:52.445Z,76.61
2024-01-12T01:35:19.162Z,76.68
2024-01-12T01:37:45.687Z,76.38
2024-01-12T01:40:12.446Z,76.46
2024-01-12T01:42:40.223Z,76.48
2024-01-12T01:45:07.104Z,76.98
2024-01-12T01:47:34.041Z,76.85
2024-01-12T01:50:01.421Z,77.54
2024-01-12T01:52:28.918Z,77.24
2024-01-12T01:54:57.915Z,77.92
2024-01-12T01:57:26.842Z,77.25
2024-01-12T01:59:53.698Z,77.81
2024-01-12T02:02:20.386Z,77.55
2024-01-12T02:04:46.908Z,77.50
2024-01-12T02:07:13.421Z,77.68
2024-01-12T02:09:40.758Z,77.79
2024-01-12T02:12:07.980Z,77.54
2024-01-12T02:14:34.615Z,77.74
2024-01-12T02:17:01.279Z,77.28
2024-01-12T02:19:27.755Z,77.73
2024-01-12T02:21:54.311Z,77.71
2024-01-12T02:24:20.776Z,78.17
2024-01-12T02:26:47.338Z,77.67
2024-01-12T02:29:13.984Z,78.07
2024-01-12T02:31:40.810Z,77.97
2024-01-12T02:34:07.719Z,78.07
2024-01-12T02:36:34.230Z,78.49
2024-01-12T02:39:00.697Z,77.75
2024-01-12T02:41:27.285Z,78.13
2024-01-12T02:43:53.773Z,78.02
2024-01-12T02:46:20.352Z,78.15
2024-01-12T02:48:46.900Z,77.53
2024-01-12T02:51:13.388Z,77.68
2024-01-12T02:53:40.009Z,77.76
2024-01-12T02:56:06.634Z,78.40
2024-01-12T02:58:33.413Z,77.81
2024-01-12T03:01:00.683Z,78.19
2024-01-12T03:03:27.542Z,77.81
2024-01-12T03:05:54.194Z,78.64
2024-01-12T03:08:20.916Z,77.89
2024-01-12T03:10:47.400Z,77.56
2024-01-12T03:13:13.886Z,77.90
2024-01-12T03:15:40.358Z,78.13
2024-01-12T03:18:09.495Z,78.65
2024-01-12T03:20:36.499Z,78.28
2024-01-12T03:23:03.192Z,78.42
2024-01-12T03:25:30.002Z,78.07
2024-01-12T03:27:56.421Z,78.38
2024-01-12T03:30:22.971Z,77.98
2024-01-12T03:32:49.675Z,77.87
2024-01-12T03:35:16.615Z,78.31
2024-01-12T03:37:43.248Z,78.09
2024-01-12T03:40:10.333Z,77.74
2024-01-12T03:42:36.744Z,77.95
2024-01-12T03:45:03.423Z,78.19
2024-01-12T03:47:30.191Z,78.36
2024-01-12T03:49:56.729Z,78.29
2024-01-12T03:52:23.213Z,78.22
2024-01-12T03:54:49.681Z,78.14
2024-01-12T03:57:16.705Z,77.99
2024-01-12T03:59:43.396Z,78.65
2024-01-12T04:02:09.923Z,78.48
2024-01-12T04:04:36.369Z,78.36
2024-01-12T04:07:02.863Z,78.29
2024-01-12T04:09:29.410Z,78.61
2024-01-12T04:11:55.936Z,78.61
2024-01-12T04:14:22.476Z,78.11
2024-01-12T04:16:48.974Z,77.99
2024-01-12T04:19:15.556Z,78.26
2024-01-12T04:21:42.039Z,78.37
2024-01-12T04:24:08.684Z,78.15
2024-01-12T04:26:36.371Z,77.69
2024-01-12T04:29:02.886Z,77.76
2024-01-12T04:31:29.386Z,77.92
2024-01-12T04:33:56.103Z,78.51
2024-01-12T04:36:24.009Z,78.82
2024-01-12T04:38:50.677Z,78.13
2024-01-12T04:41:17.286Z,78.50
2024-01-12T04:43:43.743Z,78.17
2024-01-12T04:46:10.443Z,78.82
2024-01-12T04:48:37.127Z,78.76
2024-01-12T04:51:04.019Z,78.59
2024-01-12T04:53:30.565Z,78.97
2024-01-12T04:55:57.144Z,79.12
2024-01-12T04:58:23.667Z,78.86
2024-01-12T05:00:50.351Z,79.27
2024-01-12T05:03:17.388Z,79.02
2024-01-12T05:05:44.169Z,78.92
2024-01-12T05:08:10.804Z,78.91
2024-01-12T05:10:37.275Z,79.80
2024-01-12T05:13:03.940Z,79.57
2024-01-12T05:15:30.455Z,79.33
2024-01-12T05:17:57.082Z,80.15
2024-01-12T05:20:23.743Z,80.40
2024-01-12T05:22:50.201Z,80.29
2024-01-12T05:25:16.775Z,80.63
2024-01-12T05:27:43.237Z,80.11
2024-01-12T05:30:10.466Z,79.43
2024-01-12T05:32:37.295Z,80.78
2024-01-12T05:35:04.027Z,80.86
2024-01-12T05:37:30.597Z,80.75
2024-01-12T05:39:57.077Z,81.20
2024-01-12T05:42:23.530Z,80.80
2024-01-12T05:44:50.101Z,81.14
2024-01-12T05:47:16.651Z,81.51
2024-01-12T05:49:43.181Z,80.92
2024-01-12T05:52:09.603Z,81.29
2024-01-12T05:54:36.056Z,81.05
2024-01-12T05:57:02.741Z,81.10
2024-01-12T05:59:29.293Z,81.28
2024-01-12T06:01:55.960Z,80.98
2024-01-12T06:04:22.456Z,80.71
2024-01-12T06:06:49.850Z,81.73
2024-01-12T06:09:16.503Z,81.72
2024-01-12T06:11:44.217Z,81.98
2024-01-12T06:14:11.628Z,81.42
2024-01-12T06:16:38.711Z,81.79
2024-01-12T06:19:05.438Z,81.79
2024-01-12T06:21:32.009Z,81.76
2024-01-12T06:23:58.640Z,81.44
2024-01-12T06:26:25.207Z,81.44
2024-01-12T06:28:51.704Z,81.41
2024-01-12T06:31:18.256Z,81.37
2024-01-12T06:33:44.820Z,81.04
2024-01-12T06:36:11.401Z,81.04
2024-01-12T06:38:38.680Z,81.42
2024-01-12T06:41:05.308Z,81.66
2024-01-12T06:43:31.821Z,81.31
2024-01-12T06:45:58.432Z,81.40
2024-01-12T06:48:25.083Z,81.26
2024-01-12T06:50:51.766Z,81.26
2024-01-12T06:53:18.569Z,82.28
2024-01-12T06:55:45.066Z,81.88
2024-01-12T06:58:11.535Z,81.36
2024-01-12T07:00:38.025Z,81.70
2024-01-12T07:03:04.944Z,81.44
2024-01-12T07:05:32.162Z,81.70
2024-01-12T07:07:59.031Z,81.76
2024-01-12T07:10:25.530Z,81.33
2024-01-12T07:12:53.221Z,81.66
2024-01-12T07:15:23.893Z,81.75
2024-01-12T07:17:50.604Z,81.39
2024-01-12T07:20:18.611Z,81.38
2024-01-12T07:22:46.685Z,81.40
2024-01-12T07:25:13.319Z,81.53
2024-01-12T07:27:40.562Z,80.78
2024-01-12T07:30:08.473Z,80.78
2024-01-12T07:32:36.394Z,81.98
2024-01-12T07:35:03.265Z,81.40
2024-01-12T07:37:29.861Z,81.20
2024-01-12T07:39:56.354Z,81.26
2024-01-12T07:42:22.923Z,81.64
2024-01-12T07:44:50.522Z,80.90
2024-01-12T07:47:17.371Z,81.22
2024-01-12T07:49:44.386Z,81.28
2024-01-12T07:52:14.954Z,80.93
2024-01-12T07:54:44.101Z,81.13
2024-01-12T07:57:10.620Z,81.85
2024-01-12T07:59:37.607Z,82.09
2024-01-12T08:02:04.361Z,81.80
2024-01-12T08:04:30.931Z,81.74
2024-01-12T08:06:57.758Z,81.91
2024-01-12T08:09:24.442Z,82.18
2024-01-12T08:11:51.002Z,82.14
2024-01-12T08:14:17.646Z,81.79
2024-01-12T08:16:44.197Z,81.59
2024-01-12T08:19:10.732Z,81.67
2024-01-12T08:21:45.474Z,82.03
2024-01-12T08:24:18.501Z,81.91
2024-01-12T08:26:46.714Z,82.26
2024-01-12T08:29:13.451Z,82.07
2024-01-12T08:31:39.911Z,82.47
2024-01-12T08:34:06.566Z,82.43
2024-01-12T08:36:33.180Z,81.95
2024-01-12T08:38:59.737Z,82.16
2024-01-12T08:41:26.480Z,82.32
2024-01-12T08:43:54.325Z,82.25
2024-01-12T08:46:21.393Z,82.89
2024-01-12T08:48:50.197Z,82.70
2024-01-12T08:51:17.573Z,82.87
2024-01-12T08:53:44.229Z,82.96
2024-01-12T08:56:10.773Z,82.95
2024-01-12T08:58:39.329Z,82.56
2024-01-12T09:01:06.263Z,82.96
2024-01-12T09:03:33.081Z,82.59
2024-01-12T09:05:59.900Z,82.12
2024-01-12T09:08:26.364Z,82.44
2024-01-12T09:10:53.038Z,82.46
2024-01-12T09:13:19.540Z,81.77
2024-01-12T09:15:46.043Z,82.00
2024-01-12T09:18:12.762Z,81.90
2024-01-12T09:20:39.403Z,82.13
2024-01-12T09:23:06.682Z,81.82
2024-01-12T09:25:36.046Z,81.82
2024-01-12T09:28:02.539Z,81.82
2024-01-12T09:30:29.147Z,81.89
2024-01-12T09:32:55.901Z,81.99
2024-01-12T09:35:22.701Z,81.90
2024-01-12T09:37:49.291Z,81.51
2024-01-12T09:40:15.879Z,81.34
2024-01-12T09:42:49.295Z,81.52
2024-01-12T09:45:22.334Z,81.50
2024-01-12T09:47:51.193Z,81.61
2024-01-12T09:50:22.739Z,81.32
2024-01-12T09:52:50.199Z,81.50
2024-01-12T09:55:16.663Z,80.91
2024-01-12T09:57:45.746Z,80.91
2024-01-12T10:00:15.770Z,80.91
2024-01-12T10:02:42.461Z,81.00
2024-01-12T10:05:09.496Z,80.17
2024-01-12T10:07:36.096Z,79.39
2024-01-12T10:10:02.755Z,79.74
2024-01-12T10:12:29.230Z,79.39
2024-01-12T10:15:03.990Z,79.37
2024-01-12T10:17:34.960Z,79.09
2024-01-12T10:20:02.503Z,79.05
2024-01-12T10:22:29.095Z,78.95
2024-01-12T10:25:03.865Z,79.10
2024-01-12T10:27:31.213Z,78.98
2024-01-12T10:29:57.937Z,79.28
2024-01-12T10:32:25.367Z,78.72
2024-01-12T10:34:54.234Z,78.64
2024-01-12T10:37:21.720Z,78.24
2024-01-12T10:39:50.778Z,78.36
2024-01-12T10:42:18.388Z,77.90
2024-01-12T10:44:46.221Z,77.91
2024-01-12T10:47:18.434Z,78.05
2024-01-12T10:49:52.445Z,77.23
2024-01-12T10:53:00.984Z,77.56
2024-01-12T10:55:34.867Z,78.02
2024-01-12T10:58:03.180Z,77.67
2024-01-12T11:00:32.988Z,78.08
2024-01-12T11:03:01.502Z,77.90
2024-01-12T11:05:29.611Z,77.81
2024-01-12T11:08:00.409Z,77.38
2024-01-12T11:10:31.254Z,77.24
2024-01-12T11:13:01.082Z,77.04
2024-01-12T11:15:29.688Z,77.27
2024-01-12T11:17:56.405Z,77.09
2024-01-12T11:20:23.136Z,77.06
2024-01-12T11:22:50.734Z,76.88
2024-01-12T11:25:20.578Z,76.94
2024-01-12T11:27:52.047Z,76.73
2024-01-12T11:30:23.454Z,76.49
2024-01-12T11:33:01.268Z,76.14
2024-01-12T11:35:30.614Z,76.72
2024-01-12T11:38:07.113Z,77.14
2024-01-12T11:40:36.914Z,77.57
2024-01-12T11:43:05.169Z,78.07
2024-01-12T11:45:33.652Z,77.66
2024-01-12T11:48:03.571Z,77.61
2024-01-12T11:50:30.259Z,78.02
2024-01-12T11:52:58.194Z,77.79
2024-01-12T11:55:25.429Z,78.12
2024-01-12T11:57:54.285Z,77.61
2024-01-12T12:00:22.097Z,77.32
2024-01-12T12:02:53.799Z,77.41
2024-01-12T12:05:23.666Z,77.25
2024-01-12T12:07:50.294Z,77.46
2024-01-12T12:10:19.654Z,77.05
2024-01-12T12:12:48.085Z,77.03
2024-01-12T12:15:15.866Z,77.16
2024-01-12T12:17:47.377Z,76.99
2024-01-12T12:20:14.857Z,76.91
2024-01-12T12:22:43.592Z,76.87
2024-01-12T12:25:14.034Z,76.37
2024-01-12T12:27:41.759Z,76.72
2024-01-12T12:30:11.929Z,76.82
2024-01-12T12:32:46.739Z,76.48
2024-01-12T12:35:21.637Z,76.31
2024-01-12T12:37:49.072Z,76.81
2024-01-12T12:40:16.697Z,76.56
2024-01-12T12:42:45.260Z,76.04
2024-01-12T12:45:12.794Z,76.05
2024-01-12T12:47:40.851Z,76.61
2024-01-12T12:50:12.910Z,77.20
2024-01-12T12:52:41.278Z,78.23
2024-01-12T12:55:08.801Z,78.75
2024-01-12T12:57:36.391Z,79.01
2024-01-12T13:00:06.352Z,79.58
2024-01-12T13:02:33.126Z,80.22
2024-01-12T13:04:59.731Z,79.54
2024-01-12T13:07:26.208Z,80.21
2024-01-12T13:09:56.905Z,80.16
2024-01-12T13:12:24.629Z,80.21
2024-01-12T13:14:52.714Z,80.14
2024-01-12T13:17:21.502Z,80.19
2024-01-12T13:19:48.406Z,80.34
2024-01-12T13:22:15.053Z,80.35
2024-01-12T13:24:41.575Z,79.98
2024-01-12T13:27:08.528Z,79.63
2024-01-12T13:29:35.091Z,80.21
2024-01-12T13:32:03.968Z,80.73
2024-01-12T13:34:30.872Z,81.04
2024-01-12T13:37:01.691Z,80.46
2024-01-12T13:39:28.525Z,80.86
2024-01-12T13:41:55.161Z,80.88
2024-01-12T13:44:21.882Z,80.51
2024-01-12T13:46:48.407Z,81.15
2024-01-12T13:49:15.145Z,80.17
2024-01-12T13:51:42.844Z,80.69
2024-01-12T13:54:09.835Z,80.69
2024-01-12T13:56:36.415Z,81.20
2024-01-12T13:59:04.306Z,80.57
2024-01-12T14:01:34.137Z,80.40
2024-01-12T14:04:01.786Z,80.88
2024-01-12T14:06:28.480Z,80.37
2024-01-12T14:08:55.353Z,79.97
2024-01-12T14:11:21.858Z,80.04
2024-01-12T14:13:48.967Z,80.11
2024-01-12T14:16:16.072Z,80.28
2024-01-12T14:18:42.699Z,80.00
2024-01-12T14:21:10.373Z,79.69
2024-01-12T14:23:36.992Z,79.97
2024-01-12T14:26:04.145Z,80.03
2024-01-12T14:28:33.356Z,79.76
2024-01-12T14:31:02.599Z,80.10
2024-01-12T14:33:33.707Z,79.66
2024-01-12T14:36:04.772Z,80.06
2024-01-12T14:38:31.716Z,80.29
2024-01-12T14:40:58.177Z,80.47
2024-01-12T14:43:24.564Z,82.22
2024-01-12T14:45:51.228Z,82.61
2024-01-12T14:48:18.219Z,83.25
2024-01-12T14:50:46.936Z,83.70
2024-01-12T14:53:13.723Z,83.97
2024-01-12T14:55:40.938Z,84.19
2024-01-12T14:58:07.502Z,84.75
2024-01-12T15:00:34.124Z,84.85
2024-01-12T15:03:00.970Z,84.64
2024-01-12T15:05:27.751Z,85.23
2024-01-12T15:07:54.423Z,85.67
2024-01-12T15:10:21.582Z,85.87
2024-01-12T15:12:48.173Z,85.41
2024-01-12T15:15:14.936Z,85.31
2024-01-12T15:17:42.023Z,85.27
2024-01-12T15:20:09.672Z,85.60
2024-01-12T15:22:36.383Z,85.81
2024-01-12T15:25:02.961Z,85.89
2024-01-12T15:27:29.451Z,86.14
2024-01-12T15:29:56.044Z,86.37
2024-01-12T15:32:22.775Z,86.21
2024-01-12T15:34:49.866Z,86.02
2024-01-12T15:37:17.372Z,85.81
2024-01-12T15:39:44.894Z,86.27
2024-01-12T15:42:11.493Z,86.23
2024-01-12T15:44:38.018Z,85.64
2024-01-12T15:47:04.750Z,85.70
2024-01-12T15:49:31.830Z,85.99
2024-01-12T15:51:59.083Z,85.88
2024-01-12T15:54:25.483Z,85.39
2024-01-12T15:56:52.086Z,84.66
2024-01-12T15:59:18.528Z,84.58
2024-01-12T16:01:45.064Z,84.99
2024-01-12T16:04:11.666Z,84.75
2024-01-12T16:06:38.326Z,83.89
2024-01-12T16:09:04.986Z,83.64
2024-01-12T16:11:32.687Z,83.55
2024-01-12T16:13:59.538Z,83.65
2024-01-12T16:16:26.074Z,83.88
2024-01-12T16:19:00.136Z,83.86
2024-01-12T16:21:36.270Z,84.17
2024-01-12T16:24:03.925Z,83.92
2024-01-12T16:26:36.276Z,84.51
2024-01-12T16:29:02.738Z,84.54
2024-01-12T16:31:29.156Z,84.38
2024-01-12T16:33:55.720Z,84.69
2024-01-12T16:36:22.215Z,85.05
2024-01-12T16:38:48.650Z,84.75
2024-01-12T16:41:17.930Z,84.95
2024-01-12T16:43:44.413Z,85.65
2024-01-12T16:46:10.929Z,85.92
2024-01-12T16:48:37.516Z,86.16
2024-01-12T16:51:04.249Z,86.19
2024-01-12T16:53:30.987Z,86.54
2024-01-12T16:55:57.508Z,86.52
2024-01-12T16:58:23.959Z,87.07
2024-01-12T17:00:50.632Z,86.79
2024-01-12T17:03:17.242Z,86.92
2024-01-12T17:05:44.031Z,86.89
2024-01-12T17:08:10.604Z,87.37
2024-01-12T17:10:37.377Z,87.32
2024-01-12T17:13:04.018Z,87.17
2024-01-12T17:15:30.427Z,87.13
2024-01-12T17:17:57.044Z,87.48
2024-01-12T17:20:23.621Z,87.11
2024-01-12T17:22:50.067Z,87.18
2024-01-12T17:25:16.502Z,87.28
2024-01-12T17:27:42.976Z,86.60
2024-01-12T17:30:10.299Z,86.87
2024-01-12T17:32:36.988Z,86.97
2024-01-12T17:35:03.844Z,86.91
2024-01-12T17:37:30.622Z,86.58
2024-01-12T17:39:57.156Z,86.35
2024-01-12T17:42:23.922Z,87.11
2024-01-12T17:44:50.428Z,86.39
2024-01-12T17:47:19.201Z,86.75
2024-01-12T17:49:45.802Z,86.87
2024-01-12T17:52:12.396Z,87.27
2024-01-12T17:54:38.863Z,87.46
2024-01-12T17:57:05.607Z,87.29
2024-01-12T17:59:33.165Z,86.91
2024-01-12T18:01:59.675Z,87.18
2024-01-12T18:04:26.159Z,87.40
2024-01-12T18:06:52.762Z,87.68
2024-01-12T18:09:19.318Z,87.52
2024-01-12T18:11:45.929Z,87.81
2024-01-12T18:14:12.474Z,87.45
2024-01-12T18:16:40.922Z,87.56
2024-01-12T18:19:09.257Z,87.72
2024-01-12T18:21:35.784Z,87.58
2024-01-12T18:24:02.302Z,87.71
2024-01-12T18:26:28.834Z,87.51
2024-01-12T18:28:55.375Z,87.20
2024-01-12T18:31:23.125Z,87.35
2024-01-12T18:33:49.984Z,87.50
2024-01-12T18:36:16.668Z,87.73
2024-01-12T18:38:43.521Z,87.45
2024-01-12T18:41:10.058Z,87.80
2024-01-12T18:43:36.601Z,88.13
2024-01-12T18:46:03.126Z,87.88
2024-01-12T18:48:30.631Z,88.53
2024-01-12T18:50:57.238Z,88.83
2024-01-12T18:53:24.094Z,89.05
2024-01-12T18:55:50.605Z,88.88
2024-01-12T18:58:17.073Z,88.63
2024-01-12T19:00:43.612Z,89.36
2024-01-12T19:03:10.231Z,89.52
2024-01-12T19:05:36.847Z,90.02
2024-01-12T19:08:04.223Z,89.17
2024-01-12T19:10:30.716Z,89.65
2024-01-12T19:12:57.507Z,89.94
2024-01-12T19:15:24.029Z,89.53
2024-01-12T19:17:50.819Z,89.83
2024-01-12T19:20:17.575Z,89.82
2024-01-12T19:22:44.132Z,90.13
2024-01-12T19:25:10.729Z,89.86
2024-01-12T19:27:37.206Z,89.63
2024-01-12T19:30:06.587Z,89.82
2024-01-12T19:32:33.856Z,89.97
2024-01-12T19:35:01.264Z,89.67
2024-01-12T19:37:30.547Z,89.98
2024-01-12T19:39:59.578Z,89.76
2024-01-12T19:42:26.131Z,89.93
2024-01-12T19:44:52.701Z,89.75
2024-01-12T19:47:19.222Z,89.97
2024-01-12T19:49:45.635Z,90.31
2024-01-12T19:52:12.156Z,90.02
2024-01-12T19:54:38.600Z,90.14
2024-01-12T19:57:05.802Z,90.04
2024-01-12T19:59:32.324Z,90.11
2024-01-12T20:01:58.867Z,89.44
2024-01-12T20:04:37.161Z,90.19
2024-01-12T20:07:08.016Z,89.90
2024-01-12T20:09:34.647Z,89.72
2024-01-12T20:12:01.256Z,89.82
2024-01-12T20:14:27.880Z,89.77
2024-01-12T20:16:54.852Z,90.15
2024-01-12T20:19:21.602Z,89.63
2024-01-12T20:21:48.295Z,89.72
2024-01-12T20:24:14.856Z,89.69
2024-01-12T20:26:41.362Z,90.01
2024-01-12T20:29:07.802Z,90.09
2024-01-12T20:31:34.244Z,90.03
2024-01-12T20:34:00.827Z,90.50
2024-01-12T20:36:30.262Z,90.12
2024-01-12T20:38:56.760Z,90.23
2024-01-12T20:41:23.373Z,90.36
2024-01-12T20:43:49.861Z,90.19
2024-01-12T20:46:16.365Z,90.42
2024-01-12T20:48:42.885Z,90.33
2024-01-12T20:51:09.746Z,90.46
2024-01-12T20:53:36.325Z,90.27
2024-01-12T20:56:03.034Z,90.72
2024-01-12T20:58:29.473Z,90.19
2024-01-12T21:00:58.294Z,90.48
2024-01-12T21:03:25.056Z,90.72
2024-01-12T21:05:51.774Z,90.53
2024-01-12T21:08:18.382Z,90.28
2024-01-12T21:10:44.914Z,90.38
2024-01-12T21:13:11.367Z,89.74
2024-01-12T21:15:37.793Z,90.15
2024-01-12T21:18:04.534Z,89.93
2024-01-12T21:20:31.191Z,89.77
2024-01-12T21:22:58.696Z,89.60
2024-01-12T21:25:26.071Z,90.17
2024-01-12T21:27:52.527Z,89.80
2024-01-12T21:30:19.414Z,90.00
2024-01-12T21:32:46.372Z,90.10
2024-01-12T21:35:13.193Z,89.41
2024-01-12T21:37:39.702Z,89.19
2024-01-12T21:40:07.153Z,89.08
2024-01-12T21:42:33.731Z,89.52
2024-01-12T21:45:00.509Z,89.39
2024-01-12T21:47:27.249Z,89.83
2024-01-12T21:49:53.992Z,90.09
2024-01-12T21:52:20.539Z,89.82
2024-01-12T21:54:47.075Z,89.69
2024-01-12T21:57:13.567Z,89.90
2024-01-12T21:59:40.253Z,89.26
2024-01-12T22:02:07.063Z,90.42
2024-01-12T22:04:33.590Z,89.01
2024-01-12T22:07:01.242Z,89.89
2024-01-12T22:09:28.580Z,89.37
2024-01-12T22:11:55.230Z,89.64
2024-01-12T22:14:21.748Z,89.82
2024-01-12T22:16:48.406Z,89.60
2024-01-12T22:19:15.070Z,89.27
2024-01-12T22:21:41.689Z,90.16
2024-01-12T22:24:08.173Z,90.30
2024-01-12T22:26:34.776Z,90.23
2024-01-12T22:29:01.273Z,90.09
2024-01-12T22:31:27.714Z,90.36
2024-01-12T22:33:54.487Z,90.38
2024-01-12T22:36:21.144Z,90.73
2024-01-12T22:38:47.746Z,90.31
2024-01-12T22:41:14.238Z,90.32
2024-01-12T22:43:40.672Z,90.19
2024-01-12T22:46:07.388Z,90.19
2024-01-12T22:48:34.021Z,90.05
2024-01-12T22:51:00.674Z,90.30
2024-01-12T22:53:27.857Z,90.04
2024-01-12T22:55:54.588Z,90.48
2024-01-12T22:58:21.112Z,90.62
2024-01-12T23:00:48.661Z,90.18
2024-01-12T23:03:15.783Z,90.61
2024-01-12T23:05:43.884Z,90.47
2024-01-12T23:08:10.524Z,90.29
2024-01-12T23:10:37.105Z,90.39
2024-01-12T23:13:03.647Z,90.50
2024-01-12T23:15:30.078Z,90.79
2024-01-12T23:17:56.702Z,90.69
2024-01-12T23:20:23.346Z,90.99
2024-01-12T23:22:49.846Z,90.19
2024-01-12T23:25:16.406Z,90.95
2024-01-12T23:27:44.460Z,90.57
2024-01-12T23:30:11.429Z,90.58
2024-01-12T23:32:38.416Z,90.60
2024-01-12T23:35:06.450Z,90.71
2024-01-12T23:37:33.080Z,90.70
2024-01-12T23:39:59.597Z,90.60
2024-01-12T23:42:26.194Z,91.37
2024-01-12T23:44:52.677Z,90.92
2024-01-12T23:47:19.218Z,91.82
2024-01-12T23:49:46.046Z,91.82
2024-01-12T23:52:12.753Z,92.03
2024-01-12T23:54:39.194Z,91.41
2024-01-12T23:57:05.979Z,92.02
2024-01-12T23:59:32.884Z,91.62
